Terminal Aerodrome Forecast
Issued by NWS

Home | Current Version | Previous Version | Graphics & Text | Print | Product List | Glossary On
Versions: 1 2 3 4 5 6 7 8 9 10 11 12 13 14
000
FTUS43 KICT 081722
TAFHUT
TAF
KHUT 081722Z 0818/0918 33029G40KT P6SM SKC
     FM090100 33018G25KT P6SM FEW250
     FM090600 33013KT P6SM SCT250=

USA.gov is the U.S. government's official web portal to all federal, state and local government web resources and services.